TimeCST,TemperatureF,Dew PointF,Humidity,Sea Level PressureIn,VisibilityMPH,Wind Direction,Wind SpeedMPH,Gust SpeedMPH,PrecipitationIn,Events,Conditions,WindDirDegrees,DateUTC
12:15 AM,51.8,37.4,58,30.08,10.0,SSE,10.4,-,N/A,,Clear,150,2012-11-22 06:15:00
12:35 AM,51.8,37.4,58,30.08,10.0,SSE,11.5,-,N/A,,Clear,160,2012-11-22 06:35:00
12:55 AM,51.8,37.4,58,30.08,10.0,SSE,10.4,-,N/A,,Clear,160,2012-11-22 06:55:00
1:15 AM,51.8,37.4,58,30.07,10.0,SSE,10.4,-,N/A,,Clear,150,2012-11-22 07:15:00
1:35 AM,50.0,37.4,62,30.07,10.0,SSE,8.1,-,N/A,,Clear,150,2012-11-22 07:35:00
1:55 AM,50.0,37.4,62,30.06,10.0,SSE,8.1,-,N/A,,Clear,160,2012-11-22 07:55:00
2:15 AM,50.0,37.4,62,30.06,10.0,SSE,8.1,-,N/A,,Clear,150,2012-11-22 08:15:00
2:35 AM,50.0,37.4,62,30.05,10.0,SSE,9.2,-,N/A,,Clear,150,2012-11-22 08:35:00
2:55 AM,50.0,39.2,66,30.05,10.0,SE,6.9,-,N/A,,Clear,140,2012-11-22 08:55:00
3:15 AM,50.0,39.2,66,30.05,10.0,SE,6.9,-,N/A,,Clear,140,2012-11-22 09:15:00
3:35 AM,50.0,39.2,66,30.05,10.0,SSE,5.8,-,N/A,,Clear,160,2012-11-22 09:35:00
3:55 AM,50.0,39.2,66,30.05,10.0,SSE,6.9,-,N/A,,Clear,150,2012-11-22 09:55:00
4:15 AM,51.8,39.2,62,30.04,10.0,SSE,10.4,-,N/A,,Clear,160,2012-11-22 10:15:00
4:35 AM,53.6,39.2,58,30.04,10.0,SSE,9.2,-,N/A,,Clear,160,2012-11-22 10:35:00
4:55 AM,53.6,39.2,58,30.04,10.0,South,10.4,-,N/A,,Clear,170,2012-11-22 10:55:00
5:15 AM,55.4,39.2,54,30.04,10.0,South,10.4,-,N/A,,Clear,170,2012-11-22 11:15:00
5:35 AM,55.4,39.2,54,30.03,10.0,South,11.5,-,N/A,,Clear,170,2012-11-22 11:35:00
5:55 AM,55.4,39.2,54,30.04,10.0,South,11.5,16.1,N/A,,Clear,180,2012-11-22 11:55:00
6:15 AM,55.4,37.4,51,30.04,10.0,South,13.8,-,N/A,,Clear,180,2012-11-22 12:15:00
6:35 AM,55.4,37.4,51,30.03,10.0,South,15.0,20.7,N/A,,Clear,180,2012-11-22 12:35:00
6:55 AM,55.4,37.4,51,30.04,10.0,South,16.1,-,N/A,,Clear,190,2012-11-22 12:55:00
7:15 AM,55.4,37.4,51,30.04,10.0,South,13.8,-,N/A,,Clear,180,2012-11-22 13:15:00
7:35 AM,55.4,37.4,51,30.04,10.0,South,13.8,-,N/A,,Clear,180,2012-11-22 13:35:00
7:55 AM,55.4,39.2,54,30.04,10.0,South,16.1,-,N/A,,Clear,190,2012-11-22 13:55:00
8:15 AM,57.2,39.2,51,30.05,10.0,South,15.0,21.9,N/A,,Clear,190,2012-11-22 14:15:00
8:35 AM,57.2,41.0,55,30.04,10.0,South,18.4,24.2,N/A,,Clear,180,2012-11-22 14:35:00
8:55 AM,59.0,41.0,51,30.04,10.0,South,19.6,25.3,N/A,,Clear,190,2012-11-22 14:55:00
9:15 AM,59.0,41.0,51,30.05,10.0,SSW,18.4,23.0,N/A,,Clear,200,2012-11-22 15:15:00
9:35 AM,59.0,41.0,51,30.05,10.0,South,16.1,23.0,N/A,,Clear,190,2012-11-22 15:35:00
9:55 AM,59.0,42.8,55,30.05,10.0,South,13.8,20.7,N/A,,Clear,190,2012-11-22 15:55:00
10:15 AM,59.0,42.8,55,30.05,10.0,South,15.0,-,N/A,,Clear,190,2012-11-22 16:15:00
10:35 AM,60.8,42.8,52,30.04,10.0,South,19.6,23.0,N/A,,Clear,190,2012-11-22 16:35:00
10:55 AM,60.8,42.8,52,30.03,10.0,South,17.3,25.3,N/A,,Clear,190,2012-11-22 16:55:00
11:15 AM,62.6,44.6,52,30.02,10.0,SSW,16.1,26.5,N/A,,Clear,200,2012-11-22 17:15:00
11:35 AM,62.6,44.6,52,30.01,10.0,South,15.0,23.0,N/A,,Clear,190,2012-11-22 17:35:00
11:55 AM,62.6,44.6,52,30.00,10.0,South,15.0,-,N/A,,Clear,190,2012-11-22 17:55:00
12:15 PM,62.6,44.6,52,30.00,10.0,South,13.8,-,N/A,,Clear,190,2012-11-22 18:15:00
12:35 PM,64.4,44.6,49,29.99,10.0,South,13.8,-,N/A,,Clear,190,2012-11-22 18:35:00
12:55 PM,66.2,46.4,49,29.97,10.0,SSW,24.2,31.1,N/A,,Clear,200,2012-11-22 18:55:00
1:15 PM,64.4,44.6,49,29.97,10.0,SSW,19.6,31.1,N/A,,Clear,210,2012-11-22 19:15:00
1:35 PM,64.4,46.4,52,29.97,10.0,SSW,18.4,23.0,N/A,,Clear,200,2012-11-22 19:35:00
1:55 PM,64.4,44.6,49,29.97,10.0,SSW,16.1,28.8,N/A,,Scattered Clouds,200,2012-11-22 19:55:00
2:15 PM,64.4,44.6,49,29.96,10.0,South,17.3,23.0,N/A,,Scattered Clouds,190,2012-11-22 20:15:00
2:35 PM,64.4,44.6,49,29.95,10.0,South,16.1,-,N/A,,Scattered Clouds,190,2012-11-22 20:35:00
2:55 PM,64.4,46.4,52,29.95,10.0,South,17.3,24.2,N/A,,Clear,180,2012-11-22 20:55:00
3:15 PM,64.4,44.6,49,29.94,10.0,South,20.7,26.5,N/A,,Scattered Clouds,190,2012-11-22 21:15:00
3:55 PM,64.4,46.4,52,29.96,10.0,South,15.0,19.6,N/A,,Mostly Cloudy,190,2012-11-22 21:55:00
4:15 PM,64.4,44.6,49,29.96,10.0,South,13.8,18.4,N/A,,Clear,180,2012-11-22 22:15:00
4:35 PM,62.6,46.4,55,29.96,10.0,South,15.0,21.9,N/A,,Scattered Clouds,190,2012-11-22 22:35:00
4:55 PM,62.6,44.6,52,29.97,10.0,South,16.1,21.9,N/A,,Clear,190,2012-11-22 22:55:00
5:15 PM,62.6,44.6,52,29.97,10.0,South,12.7,19.6,N/A,,Clear,190,2012-11-22 23:15:00
5:35 PM,62.6,44.6,52,29.99,10.0,SSW,12.7,-,N/A,,Clear,200,2012-11-22 23:35:00
5:55 PM,60.8,44.6,55,30.01,10.0,SW,8.1,-,N/A,,Clear,220,2012-11-22 23:55:00
6:35 PM,59.0,44.6,59,30.04,10.0,SW,6.9,-,N/A,,Scattered Clouds,220,2012-11-23 00:35:00
6:55 PM,59.0,46.4,63,30.04,10.0,SSW,5.8,-,N/A,,Overcast,210,2012-11-23 00:55:00
7:15 PM,60.8,44.6,55,30.04,10.0,SSW,6.9,-,N/A,,Overcast,210,2012-11-23 01:15:00
7:55 PM,59.0,44.6,59,30.04,10.0,South,9.2,-,N/A,Thunderstorm,Scattered Clouds,190,2012-11-23 01:55:00
8:15 PM,57.2,46.4,67,30.05,10.0,SSW,8.1,-,N/A,,Scattered Clouds,200,2012-11-23 02:15:00
8:35 PM,57.2,46.4,67,30.05,10.0,SSW,6.9,-,N/A,,Scattered Clouds,210,2012-11-23 02:35:00
8:55 PM,57.2,46.4,67,30.06,10.0,SSW,5.8,-,N/A,,Mostly Cloudy,210,2012-11-23 02:55:00
9:15 PM,57.2,46.4,67,30.08,10.0,SW,5.8,-,N/A,,Overcast,230,2012-11-23 03:15:00
9:35 PM,59.0,46.4,63,30.11,10.0,West,8.1,-,N/A,,Overcast,280,2012-11-23 03:35:00
9:55 PM,59.0,46.4,63,30.12,10.0,West,6.9,-,N/A,,Overcast,270,2012-11-23 03:55:00
10:15 PM,57.2,50.0,77,30.14,10.0,NNW,16.1,-,N/A,Rain,Rain,340,2012-11-23 04:15:00
10:35 PM,55.4,46.4,72,30.14,10.0,North,15.0,23.0,N/A,,Overcast,360,2012-11-23 04:35:00
10:55 PM,55.4,44.6,67,30.17,10.0,North,19.6,25.3,N/A,,Overcast,350,2012-11-23 04:55:00
11:15 PM,55.4,41.0,58,30.19,10.0,North,23.0,33.4,N/A,,Overcast,360,2012-11-23 05:15:00
11:35 PM,53.6,35.6,51,30.21,10.0,North,23.0,29.9,N/A,,Overcast,360,2012-11-23 05:35:00
11:55 PM,53.6,33.8,47,30.22,10.0,North,19.6,31.1,N/A,,Overcast,360,2012-11-23 05:55:00